Terminal Aerodrome Forecast
Issued by NWS Louisville, KY

Home | Current Version | Previous Version | Text Only | Print | Product List | Glossary On
Versions: 1 2 3 4 5 6 7 8 9 10 11 12 13 14 15 16 17 18
000
FTUS43 KLMK 280235 AAA
TAFLEX
TAF AMD
KLEX 280235Z 2803/2824 18006KT P6SM BKN070
     FM280800 19006KT 6SM BR OVC025
     FM280900 VRB05KT 5SM BR OVC011
     FM281300 26006KT 5SM BR OVC007
     FM282100 32005KT 6SM BR BKN012=

USA.gov is the U.S. government's official web portal to all federal, state and local government web resources and services.